Time;durP1;ratioP1;P1;durP2;ratioP2;P2;SDS_P1;SDS_P2;PMS_P1;PMS_P2;Temp;Humidity;BMP_temperature;BMP_pressure;BME280_temperature;BME280_humidity;BME280_pressure;Samples;Min_cycle;Max_cycle;Signal;HPM_P1;HPM_P2
2021/08/15 00:00:00;;;;;;;;;;;27.00;89.00;26.90;99503.00;;;;426976;22;83368;-92
2021/08/15 00:00:13;;;;;;;;;;;27.00;88.70;26.90;99506.00;;;;426402;22;90510;-92
2021/08/15 00:00:25;;;;;;;;;;;26.90;89.10;26.90;99513.00;;;;427238;22;83343;-93
2021/08/15 00:00:37;;;;;;;;;;;26.90;88.70;26.90;99514.00;;;;426609;22;90992;-91
2021/08/15 00:00:49;;;;;;;;;;;26.90;88.50;26.90;99516.00;;;;426930;22;83789;-93
2021/08/15 00:01:01;;;;;;;;;;;27.00;88.70;26.90;99515.00;;;;424335;22;91000;-92
2021/08/15 00:01:13;;;;;;;;;;;26.90;88.30;26.90;99515.00;;;;426829;22;83415;-92
2021/08/15 00:01:25;;;;;;;;;;;26.90;88.60;27.00;99517.00;;;;424288;22;90574;-92
2021/08/15 00:01:37;;;;;;;;;;;26.90;88.80;27.00;99510.00;;;;427191;22;83259;-92
2021/08/15 00:01:49;;;;;;;;;;;27.00;88.60;27.00;99513.00;;;;424125;22;90283;-92
2021/08/15 00:02:02;;;;;;;;;;;26.90;88.40;27.00;99509.00;;;;424823;22;83339;-92
2021/08/15 00:02:14;;;;;;;;;;;27.00;88.30;26.90;99508.00;;;;426617;22;90476;-92
2021/08/15 00:02:26;;;;;;;;;;;27.00;88.20;26.90;99509.00;;;;422874;23;82564;-92
2021/08/15 00:02:38;;;;;;;;;;;26.90;88.30;26.90;99506.00;;;;425727;22;92310;-92
2021/08/15 00:02:52;;;;;;;;;;;27.00;88.60;27.00;99511.00;;;;428804;22;82436;-92
2021/08/15 00:03:04;;;;;;;;;;;26.90;88.70;27.00;99506.00;;;;426118;22;91436;-92
2021/08/15 00:03:16;;;;;;;;;;;27.00;88.80;26.90;99506.00;;;;424860;22;83341;-92
2021/08/15 00:03:28;;;;;;;;;;;26.90;88.90;26.90;99510.00;;;;424122;22;90100;-92
2021/08/15 00:03:40;;;;;;;;;;;26.90;88.30;26.90;99519.00;;;;424848;22;82464;-92
2021/08/15 00:03:52;;;;;;;;;;;26.90;88.50;26.90;99513.00;;;;424262;22;91586;-92
2021/08/15 00:04:03;;;;;;;;;;;26.90;88.50;26.90;99508.00;;;;422760;23;83338;-92
2021/08/15 00:04:15;;;;;;;;;;;26.90;88.60;26.80;99510.00;;;;424741;22;90768;-92
2021/08/15 00:04:27;;;;;;;;;;;26.90;88.50;26.90;99516.00;;;;425237;22;82425;-92
2021/08/15 00:04:39;;;;;;;;;;;26.90;88.70;26.80;99506.00;;;;424454;22;92314;-92
2021/08/15 00:04:51;;;;;;;;;;;26.90;88.70;26.80;99511.00;;;;423090;23;83404;-92
2021/08/15 00:05:03;;;;;;;;;;;26.90;88.80;26.90;99509.00;;;;424411;22;91597;-93
2021/08/15 00:05:15;;;;;;;;;;;26.90;89.00;26.90;99508.00;;;;427004;22;83458;-92
2021/08/15 00:05:27;;;;;;;;;;;26.90;89.20;26.90;99511.00;;;;424729;22;90505;-92
2021/08/15 00:05:39;;;;;;;;;;;26.90;89.10;26.90;99509.00;;;;427365;22;83354;-91
2021/08/15 00:05:51;;;;;;;;;;;26.90;89.20;26.80;99511.00;;;;424201;22;90480;-94
2021/08/15 00:06:02;;;;;;;;;;;26.90;88.90;26.80;99509.00;;;;424850;22;82457;-92
2021/08/15 00:06:14;;;;;;;;;;;26.90;88.70;26.70;99511.00;;;;422282;23;91360;-92
2021/08/15 00:06:26;;;;;;;;;;;26.90;88.60;26.80;99504.00;;;;426886;22;82541;-93
2021/08/15 00:06:38;;;;;;;;;;;26.80;88.50;26.80;99512.00;;;;428861;22;91072;-92
2021/08/15 00:06:50;;;;;;;;;;;26.80;88.80;26.80;99511.00;;;;428913;22;83200;-93
2021/08/15 00:07:02;;;;;;;;;;;26.90;88.90;26.90;99518.00;;;;426214;22;91554;-92
2021/08/15 00:07:14;;;;;;;;;;;26.90;89.00;26.80;99519.00;;;;426914;22;83328;-92
2021/08/15 00:07:25;;;;;;;;;;;26.90;88.90;26.90;99514.00;;;;424769;22;90466;-92
2021/08/15 00:07:38;;;;;;;;;;;26.80;88.90;26.90;99517.00;;;;426948;22;83346;-91
2021/08/15 00:07:50;;;;;;;;;;;26.80;88.50;26.80;99517.00;;;;422322;23;90355;-92
2021/08/15 00:08:02;;;;;;;;;;;26.90;88.60;26.70;99515.00;;;;428905;22;83340;-93
2021/08/15 00:08:14;;;;;;;;;;;26.90;88.60;26.70;99504.00;;;;424280;22;91293;-91
2021/08/15 00:08:26;;;;;;;;;;;26.80;88.60;26.70;99511.00;;;;424724;22;82408;-93
2021/08/15 00:08:38;;;;;;;;;;;26.80;88.50;26.70;99515.00;;;;426387;22;92155;-92
2021/08/15 00:08:50;;;;;;;;;;;26.80;88.70;26.70;99518.00;;;;425125;22;83345;-92
2021/08/15 00:09:02;;;;;;;;;;;26.80;88.50;26.70;99515.00;;;;424746;22;90490;-92
2021/08/15 00:09:14;;;;;;;;;;;26.80;88.50;26.70;99508.00;;;;426888;22;83401;-92
2021/08/15 00:09:26;;;;;;;;;;;26.80;88.50;26.70;99515.00;;;;426586;22;91660;-93
2021/08/15 00:09:37;;;;;;;;;;;26.80;88.80;26.70;99517.00;;;;427236;22;82444;-92
2021/08/15 00:09:49;;;;;;;;;;;26.80;88.90;26.70;99510.00;;;;424571;22;90740;-92
2021/08/15 00:10:01;;;;;;;;;;;26.80;89.00;26.70;99513.00;;;;424992;22;83355;-92
2021/08/15 00:10:13;;;;;;;;;;;26.80;88.80;26.70;99514.00;;;;428356;22;91143;-92
2021/08/15 00:10:25;;;;;;;;;;;26.80;88.80;26.70;99514.00;;;;429012;22;83331;-94
2021/08/15 00:10:38;;;;;;;;;;;26.80;88.80;26.70;99508.00;;;;428254;22;92761;-93
2021/08/15 00:10:50;;;;;;;;;;;26.80;88.70;26.70;99518.00;;;;427182;22;82458;-92
2021/08/15 00:11:02;;;;;;;;;;;26.70;88.90;26.70;99512.00;;;;426072;22;91536;-92
2021/08/15 00:11:14;;;;;;;;;;;26.80;89.20;26.70;99517.00;;;;426785;22;83356;-92
2021/08/15 00:11:25;;;;;;;;;;;26.70;89.20;26.80;99515.00;;;;426824;22;90453;-92
2021/08/15 00:11:37;;;;;;;;;;;26.70;89.40;26.70;99511.00;;;;429049;22;82516;-92
2021/08/15 00:11:49;;;;;;;;;;;26.80;89.30;26.80;99513.00;;;;428758;22;90397;-93
2021/08/15 00:12:05;;;;;;;;;;;26.80;89.30;26.80;99515.00;;;;425090;22;83445;-92
2021/08/15 00:12:17;;;;;;;;;;;26.70;88.90;26.80;99516.00;;;;417927;23;91156;-92
2021/08/15 00:12:29;;;;;;;;;;;26.70;89.10;26.70;99507.00;;;;416808;23;82355;-92
2021/08/15 00:12:41;;;;;;;;;;;26.80;89.00;26.80;99515.00;;;;422028;23;93172;-92
2021/08/15 00:12:53;;;;;;;;;;;26.70;89.10;26.70;99504.00;;;;428904;22;83125;-93
2021/08/15 00:13:06;;;;;;;;;;;26.80;89.10;26.70;99511.00;;;;425871;22;90312;-92
2021/08/15 00:13:18;;;;;;;;;;;26.80;89.10;26.60;99507.00;;;;425229;22;83416;-91
2021/08/15 00:13:30;;;;;;;;;;;26.70;88.80;26.60;99512.00;;;;426723;22;90737;-92
2021/08/15 00:13:42;;;;;;;;;;;26.70;88.90;26.60;99510.00;;;;425138;22;82443;-91
2021/08/15 00:13:53;;;;;;;;;;;26.70;89.00;26.60;99509.00;;;;426579;22;91850;-92
2021/08/15 00:14:05;;;;;;;;;;;26.70;89.10;26.70;99507.00;;;;425151;22;83376;-92
2021/08/15 00:14:17;;;;;;;;;;;26.70;89.10;26.70;99501.00;;;;428913;22;90345;-92
2021/08/15 00:14:29;;;;;;;;;;;26.70;89.30;26.70;99509.00;;;;426841;22;83396;-92
2021/08/15 00:14:41;;;;;;;;;;;26.70;89.40;26.80;99512.00;;;;428282;22;92552;-93
2021/08/15 00:14:53;;;;;;;;;;;26.70;89.30;26.80;99514.00;;;;424924;22;83404;-92
2021/08/15 00:15:09;;;;;;;;;;;26.70;89.20;26.70;99516.00;;;;426482;22;91490;-93
2021/08/15 00:15:21;;;;;;;;;;;26.70;89.20;26.70;99503.00;;;;418837;23;83323;-92
2021/08/15 00:15:33;;;;;;;;;;;26.70;89.00;26.70;99507.00;;;;415824;23;91578;-92
2021/08/15 00:15:45;;;;;;;;;;;26.70;88.80;26.70;99506.00;;;;424591;22;83383;-92
2021/08/15 00:15:57;;;;;;;;;;;26.70;88.70;26.80;99519.00;;;;424085;22;91438;-91
2021/08/15 00:16:09;;;;;;;;;;;26.70;88.90;26.70;99509.00;;;;426970;22;83328;-92
2021/08/15 00:16:21;;;;;;;;;;;26.70;89.10;26.80;99514.00;;;;424508;22;90353;-92
2021/08/15 00:16:33;;;;;;;;;;;26.70;89.10;26.70;99512.00;;;;424860;22;83364;-91
2021/08/15 00:16:45;;;;;;;;;;;26.70;89.00;26.70;99508.00;;;;424133;22;92434;-92
2021/08/15 00:16:57;;;;;;;;;;;26.70;89.00;26.80;99516.00;;;;424619;22;82485;-92
2021/08/15 00:17:09;;;;;;;;;;;26.70;89.20;26.70;99509.00;;;;421849;23;91501;-92
2021/08/15 00:17:21;;;;;;;;;;;26.70;89.10;26.70;99510.00;;;;427373;22;83191;-92
2021/08/15 00:17:32;;;;;;;;;;;26.70;89.20;26.80;99509.00;;;;422565;23;90485;-92
2021/08/15 00:17:44;;;;;;;;;;;26.70;89.10;26.80;99500.00;;;;427252;22;82495;-93
2021/08/15 00:17:56;;;;;;;;;;;26.70;89.10;26.80;99515.00;;;;426668;22;91402;-92
2021/08/15 00:18:08;;;;;;;;;;;26.70;88.80;26.80;99515.00;;;;425075;22;82466;-92
2021/08/15 00:18:19;;;;;;;;;;;26.70;88.90;26.70;99500.00;;;;424639;22;90788;-91
2021/08/15 00:18:31;;;;;;;;;;;26.70;88.80;26.70;99508.00;;;;425171;22;83389;-93
2021/08/15 00:18:43;;;;;;;;;;;26.70;88.70;26.70;99510.00;;;;415829;23;92714;-92
2021/08/15 00:18:55;;;;;;;;;;;26.70;88.70;26.70;99503.00;;;;425172;22;83250;-92
2021/08/15 00:19:07;;;;;;;;;;;26.70;88.90;26.70;99500.00;;;;422306;23;90684;-92
2021/08/15 00:19:19;;;;;;;;;;;26.70;88.90;26.70;99506.00;;;;429394;22;82527;-92
2021/08/15 00:19:30;;;;;;;;;;;26.70;88.90;26.70;99507.00;;;;426437;22;91042;-92
2021/08/15 00:19:42;;;;;;;;;;;26.70;89.00;26.80;99504.00;;;;425074;22;82492;-92
2021/08/15 00:19:54;;;;;;;;;;;26.70;89.10;26.70;99510.00;;;;424212;22;90230;-93
2021/08/15 00:20:07;;;;;;;;;;;26.70;89.10;26.80;99507.00;;;;425152;22;82639;-91
2021/08/15 00:20:19;;;;;;;;;;;26.70;89.10;26.80;99513.00;;;;428465;22;91835;-92
2021/08/15 00:20:30;;;;;;;;;;;26.70;89.20;26.80;99505.00;;;;426804;22;83353;-93
2021/08/15 00:20:42;;;;;;;;;;;26.70;89.20;26.80;99512.00;;;;424240;22;92674;-92
2021/08/15 00:20:54;;;;;;;;;;;26.70;89.30;26.80;99510.00;;;;427211;22;82402;-92
2021/08/15 00:21:06;;;;;;;;;;;26.70;89.30;26.80;99507.00;;;;426068;22;91938;-92
2021/08/15 00:21:18;;;;;;;;;;;26.70;89.40;26.70;99505.00;;;;429311;22;83369;-92
2021/08/15 00:21:34;;;;;;;;;;;26.70;89.40;26.70;99507.00;;;;428425;22;90877;-92
2021/08/15 00:21:46;;;;;;;;;;;26.70;89.30;26.70;99506.00;;;;425141;22;83331;-93
2021/08/15 00:21:58;;;;;;;;;;;26.70;89.10;26.60;99506.00;;;;424659;22;90239;-92
2021/08/15 00:22:10;;;;;;;;;;;26.70;89.10;26.70;99504.00;;;;424828;22;82544;-91
2021/08/15 00:22:22;;;;;;;;;;;26.70;89.40;26.70;99497.00;;;;424649;22;90826;-92
2021/08/15 00:22:37;;;;;;;;;;;26.70;89.40;26.70;99503.00;;;;424813;22;83381;-92
2021/08/15 00:22:49;;;;;;;;;;;26.70;89.50;26.70;99505.00;;;;421961;23;92150;-92
2021/08/15 00:23:00;;;;;;;;;;;26.70;89.40;26.70;99503.00;;;;429049;22;82499;-92
2021/08/15 00:23:12;;;;;;;;;;;26.70;89.50;26.70;99501.00;;;;426227;22;89864;-92
2021/08/15 00:23:24;;;;;;;;;;;26.70;89.50;26.70;99502.00;;;;425031;22;83291;-92
2021/08/15 00:23:36;;;;;;;;;;;26.70;89.60;26.70;99503.00;;;;428976;22;90532;-91
2021/08/15 00:23:48;;;;;;;;;;;26.70;89.70;26.70;99503.00;;;;425122;22;82481;-92
2021/08/15 00:24:00;;;;;;;;;;;26.70;89.60;26.70;99503.00;;;;430367;22;91391;-91
2021/08/15 00:24:11;;;;;;;;;;;26.70;89.70;26.60;99507.00;;;;427023;22;83399;-92
2021/08/15 00:24:23;;;;;;;;;;;26.70;89.60;26.60;99507.00;;;;426708;22;90743;-92
2021/08/15 00:24:36;;;;;;;;;;;26.70;89.60;26.60;99505.00;;;;424861;22;83482;-92
2021/08/15 00:24:47;;;;;;;;;;;26.70;89.50;26.50;99498.00;;;;424599;22;91024;-92
2021/08/15 00:24:59;;;;;;;;;;;26.60;89.60;26.50;99505.00;;;;423056;23;82462;-92
2021/08/15 00:25:13;;;;;;;;;;;26.60;89.60;26.50;99509.00;;;;426577;22;91139;-93
2021/08/15 00:25:25;;;;;;;;;;;26.60;89.60;26.60;99506.00;;;;425138;22;83305;-93
2021/08/15 00:25:36;;;;;;;;;;;26.70;89.80;26.60;99496.00;;;;423995;22;91198;-93
2021/08/15 00:25:48;;;;;;;;;;;26.70;89.80;26.60;99500.00;;;;424956;22;83504;-92
2021/08/15 00:26:01;;;;;;;;;;;26.60;89.80;26.60;99501.00;;;;426728;22;90889;-92
2021/08/15 00:26:12;;;;;;;;;;;26.70;89.90;26.60;99500.00;;;;426880;22;83403;-93
2021/08/15 00:26:24;;;;;;;;;;;26.60;89.90;26.60;99500.00;;;;426288;22;91647;-92
2021/08/15 00:26:36;;;;;;;;;;;26.70;90.00;26.60;99502.00;;;;424974;22;82444;-92
2021/08/15 00:26:48;;;;;;;;;;;26.60;90.00;26.50;99500.00;;;;428233;22;93331;-92
2021/08/15 00:27:00;;;;;;;;;;;26.60;89.90;26.50;99505.00;;;;427167;22;82494;-92
2021/08/15 00:27:12;;;;;;;;;;;26.60;89.90;26.50;99499.00;;;;419729;23;91985;-93
2021/08/15 00:27:24;;;;;;;;;;;26.70;90.00;26.50;99499.00;;;;427129;22;83370;-93
2021/08/15 00:27:35;;;;;;;;;;;26.60;90.00;26.50;99503.00;;;;426630;22;90363;-91
2021/08/15 00:27:47;;;;;;;;;;;26.60;90.00;26.50;99504.00;;;;426401;22;83363;-94
2021/08/15 00:28:00;;;;;;;;;;;26.60;90.00;26.40;99509.00;;;;415917;23;90789;-91
2021/08/15 00:28:12;;;;;;;;;;;26.60;90.00;26.40;99500.00;;;;425132;22;82512;-91
2021/08/15 00:28:24;;;;;;;;;;;26.60;90.10;26.40;99505.00;;;;424667;22;90136;-92
2021/08/15 00:28:36;;;;;;;;;;;26.60;90.20;26.50;99498.00;;;;424701;22;83400;-92
2021/08/15 00:28:48;;;;;;;;;;;26.60;90.10;26.50;99503.00;;;;422041;23;92500;-92
2021/08/15 00:29:00;;;;;;;;;;;26.60;90.10;26.50;99503.00;;;;426800;22;82470;-92
2021/08/15 00:29:12;;;;;;;;;;;26.60;90.20;26.50;99500.00;;;;423933;22;92222;-93
2021/08/15 00:29:24;;;;;;;;;;;26.60;90.30;26.50;99501.00;;;;427226;22;83339;-92
2021/08/15 00:29:36;;;;;;;;;;;26.50;90.30;26.50;99497.00;;;;426828;22;90669;-93
2021/08/15 00:29:47;;;;;;;;;;;26.60;90.30;26.50;99501.00;;;;424656;22;83407;-92
2021/08/15 00:29:59;;;;;;;;;;;26.60;90.40;26.40;99500.00;;;;424547;22;90532;-92
2021/08/15 00:30:14;;;;;;;;;;;26.60;90.50;26.50;99500.00;;;;426927;22;83327;-93
2021/08/15 00:30:26;;;;;;;;;;;26.50;90.40;26.50;99501.00;;;;426259;22;91391;-93
2021/08/15 00:30:38;;;;;;;;;;;26.50;90.30;26.50;99500.00;;;;429480;22;82439;-92
2021/08/15 00:30:49;;;;;;;;;;;26.50;90.30;26.60;99503.00;;;;428328;22;92108;-93
2021/08/15 00:31:01;;;;;;;;;;;26.60;90.40;26.60;99496.00;;;;426854;22;83426;-92
2021/08/15 00:31:13;;;;;;;;;;;26.50;90.40;26.60;99506.00;;;;426440;22;90553;-92
2021/08/15 00:31:26;;;;;;;;;;;26.60;90.50;26.70;99497.00;;;;427327;22;82590;-91
2021/08/15 00:31:38;;;;;;;;;;;26.60;90.60;26.70;99497.00;;;;426365;22;91984;-92
2021/08/15 00:31:50;;;;;;;;;;;26.60;90.60;26.60;99500.00;;;;426868;22;82455;-92
2021/08/15 00:32:05;;;;;;;;;;;26.60;90.60;26.60;99502.00;;;;428262;22;91285;-92
2021/08/15 00:32:17;;;;;;;;;;;26.60;90.50;26.60;99504.00;;;;427282;22;82477;-92
2021/08/15 00:32:29;;;;;;;;;;;26.60;90.50;26.60;99493.00;;;;428442;22;91673;-92
2021/08/15 00:32:41;;;;;;;;;;;26.60;90.60;26.50;99504.00;;;;427187;22;83374;-91
2021/08/15 00:32:53;;;;;;;;;;;26.60;90.70;26.60;99502.00;;;;417771;23;92872;-92
2021/08/15 00:33:05;;;;;;;;;;;26.60;90.70;26.60;99502.00;;;;416640;23;83461;-94
2021/08/15 00:33:17;;;;;;;;;;;26.60;90.70;26.50;99502.00;;;;428786;22;90640;-93
2021/08/15 00:33:29;;;;;;;;;;;26.60;90.70;26.50;99505.00;;;;424812;22;82526;-91
2021/08/15 00:33:40;;;;;;;;;;;26.50;90.70;26.50;99502.00;;;;426262;22;91772;-91
2021/08/15 00:33:54;;;;;;;;;;;26.50;90.70;26.40;99506.00;;;;431339;22;82572;-92
2021/08/15 00:34:05;;;;;;;;;;;26.50;90.70;26.40;99505.00;;;;426343;22;91730;-92
2021/08/15 00:34:17;;;;;;;;;;;26.50;90.80;26.40;99505.00;;;;427182;22;82481;-92
2021/08/15 00:34:30;;;;;;;;;;;26.50;90.80;26.40;99501.00;;;;426310;22;91564;-92
2021/08/15 00:34:41;;;;;;;;;;;26.50;91.00;26.40;99505.00;;;;426660;22;83343;-93
2021/08/15 00:34:53;;;;;;;;;;;26.50;91.00;26.40;99504.00;;;;426254;22;92762;-92
2021/08/15 00:35:05;;;;;;;;;;;26.50;90.90;26.40;99506.00;;;;427192;22;83293;-93
2021/08/15 00:35:17;;;;;;;;;;;26.50;90.80;26.40;99507.00;;;;424198;22;91122;-92
2021/08/15 00:35:29;;;;;;;;;;;26.50;90.80;26.40;99506.00;;;;425183;22;83345;-92
2021/08/15 00:35:43;;;;;;;;;;;26.50;91.00;26.40;99507.00;;;;431014;22;90426;-91
2021/08/15 00:35:54;;;;;;;;;;;26.50;91.20;26.40;99505.00;;;;426684;22;82489;-92
2021/08/15 00:36:07;;;;;;;;;;;26.50;90.90;26.40;99503.00;;;;428751;22;91489;-91
2021/08/15 00:36:19;;;;;;;;;;;26.50;91.00;26.30;99507.00;;;;425149;22;83506;-92
2021/08/15 00:36:31;;;;;;;;;;;26.50;91.00;26.30;99506.00;;;;424401;22;90513;-92
2021/08/15 00:36:42;;;;;;;;;;;26.50;91.00;26.30;99509.00;;;;425184;22;83236;-92
2021/08/15 00:36:54;;;;;;;;;;;26.40;91.00;26.40;99502.00;;;;424612;22;91122;-92
2021/08/15 00:37:06;;;;;;;;;;;26.40;90.90;26.50;99510.00;;;;426841;22;83266;-93
2021/08/15 00:37:18;;;;;;;;;;;26.40;90.90;26.50;99502.00;;;;426115;22;91334;-92
2021/08/15 00:37:30;;;;;;;;;;;26.50;90.90;26.50;99505.00;;;;427320;22;82385;-91
2021/08/15 00:37:42;;;;;;;;;;;26.40;90.90;26.40;99506.00;;;;422574;23;90307;-92
2021/08/15 00:37:53;;;;;;;;;;;26.50;90.90;26.40;99509.00;;;;422683;23;83398;-93
2021/08/15 00:38:06;;;;;;;;;;;26.50;90.90;26.40;99508.00;;;;415829;23;90960;-92
2021/08/15 00:38:18;;;;;;;;;;;26.40;90.80;26.40;99512.00;;;;426675;22;83434;-93
2021/08/15 00:38:30;;;;;;;;;;;26.40;90.90;26.40;99508.00;;;;426390;22;90502;-91
2021/08/15 00:38:41;;;;;;;;;;;26.40;90.90;26.40;99503.00;;;;428957;22;83388;-92
2021/08/15 00:38:53;;;;;;;;;;;26.50;91.10;26.40;99506.00;;;;428395;22;92319;-92
2021/08/15 00:39:05;;;;;;;;;;;26.40;91.00;26.40;99506.00;;;;426842;22;82477;-94
2021/08/15 00:39:17;;;;;;;;;;;26.40;90.90;26.30;99509.00;;;;426673;22;91390;-92
2021/08/15 00:39:29;;;;;;;;;;;26.40;91.10;26.30;99503.00;;;;428960;22;82434;-92
2021/08/15 00:39:40;;;;;;;;;;;26.40;91.00;26.30;99500.00;;;;426678;22;91568;-91
2021/08/15 00:39:52;;;;;;;;;;;26.40;91.00;26.30;99505.00;;;;426816;22;83441;-92
2021/08/15 00:40:05;;;;;;;;;;;26.40;90.90;26.40;99498.00;;;;422547;23;90208;-92
2021/08/15 00:40:18;;;;;;;;;;;26.40;90.90;26.40;99500.00;;;;426893;22;83290;-92
2021/08/15 00:40:29;;;;;;;;;;;26.40;90.90;26.40;99510.00;;;;426713;22;90396;-91
2021/08/15 00:40:41;;;;;;;;;;;26.40;91.00;26.30;99504.00;;;;427292;22;82418;-92
2021/08/15 00:40:53;;;;;;;;;;;26.40;91.00;26.40;99504.00;;;;424488;22;92356;-92
2021/08/15 00:41:05;;;;;;;;;;;26.40;90.90;26.40;99497.00;;;;425098;22;83324;-92
2021/08/15 00:41:17;;;;;;;;;;;26.40;90.90;26.50;99494.00;;;;426281;22;91836;-92
2021/08/15 00:41:29;;;;;;;;;;;26.40;91.00;26.40;99502.00;;;;427257;22;82536;-92
2021/08/15 00:41:41;;;;;;;;;;;26.40;91.00;26.40;99506.00;;;;428409;22;90480;-92
2021/08/15 00:41:53;;;;;;;;;;;26.30;90.90;26.40;99501.00;;;;424435;22;83383;-92
2021/08/15 00:42:04;;;;;;;;;;;26.40;90.90;26.40;99495.00;;;;424619;22;90340;-92
2021/08/15 00:42:16;;;;;;;;;;;26.40;91.00;26.40;99499.00;;;;424737;22;83430;-92
2021/08/15 00:42:28;;;;;;;;;;;26.40;90.90;26.40;99495.00;;;;425965;22;91515;-92
2021/08/15 00:42:40;;;;;;;;;;;26.30;90.90;26.50;99497.00;;;;425112;22;83345;-92
2021/08/15 00:42:52;;;;;;;;;;;26.40;90.90;26.40;99491.00;;;;422487;23;91486;-92
2021/08/15 00:43:04;;;;;;;;;;;26.40;90.90;26.30;99490.00;;;;424661;22;83408;-92
2021/08/15 00:43:15;;;;;;;;;;;26.40;90.90;26.30;99498.00;;;;426512;22;90209;-92
2021/08/15 00:43:31;;;;;;;;;;;26.30;90.90;26.40;99500.00;;;;424666;22;83424;-92
2021/08/15 00:43:43;;;;;;;;;;;26.30;90.90;26.40;99500.00;;;;424498;22;91575;-91
2021/08/15 00:43:55;;;;;;;;;;;26.40;90.80;26.30;99496.00;;;;422991;23;83343;-92
2021/08/15 00:44:07;;;;;;;;;;;26.30;90.80;26.30;99495.00;;;;424652;22;90341;-91
2021/08/15 00:44:18;;;;;;;;;;;26.30;90.80;26.30;99504.00;;;;427387;22;83415;-89
2021/08/15 00:44:30;;;;;;;;;;;26.30;90.80;26.30;99498.00;;;;424285;22;90109;-91
2021/08/15 00:44:43;;;;;;;;;;;26.40;90.80;26.30;99496.00;;;;424750;22;82572;-93
2021/08/15 00:44:55;;;;;;;;;;;26.30;90.90;26.20;99499.00;;;;422391;23;91307;-93
2021/08/15 00:45:07;;;;;;;;;;;26.30;90.80;26.20;99492.00;;;;416688;23;83354;-92
2021/08/15 00:45:19;;;;;;;;;;;26.30;90.80;26.30;99491.00;;;;426024;22;91198;-92
2021/08/15 00:45:31;;;;;;;;;;;26.30;90.80;26.30;99494.00;;;;426815;22;83418;-92
2021/08/15 00:45:43;;;;;;;;;;;26.30;90.80;26.30;99505.00;;;;426818;22;90317;-92
2021/08/15 00:45:55;;;;;;;;;;;26.30;90.80;26.30;99497.00;;;;429351;22;82467;-92
2021/08/15 00:46:10;;;;;;;;;;;26.30;90.80;26.20;99494.00;;;;426435;22;91989;-92
2021/08/15 00:46:22;;;;;;;;;;;26.30;90.80;26.10;99496.00;;;;424813;22;83253;-94
2021/08/15 00:46:34;;;;;;;;;;;26.30;90.80;26.10;99494.00;;;;427944;22;91503;-92
2021/08/15 00:46:46;;;;;;;;;;;26.30;90.90;26.10;99501.00;;;;427195;22;82477;-92
2021/08/15 00:46:58;;;;;;;;;;;26.30;91.00;26.10;99488.00;;;;415773;23;92127;-92
2021/08/15 00:47:10;;;;;;;;;;;26.30;91.30;26.00;99494.00;;;;423053;23;82434;-92
2021/08/15 00:47:21;;;;;;;;;;;26.30;91.00;26.00;99496.00;;;;426716;22;90259;-92
2021/08/15 00:47:33;;;;;;;;;;;26.30;91.10;26.00;99495.00;;;;426846;22;83344;-92
2021/08/15 00:47:45;;;;;;;;;;;26.30;91.20;26.00;99492.00;;;;424389;22;90814;-92
2021/08/15 00:48:06;;;;;;;;;;;26.20;91.20;26.00;99493.00;;;;428409;22;83363;-92
2021/08/15 00:48:18;;;;;;;;;;;26.30;91.20;26.10;99486.00;;;;426310;22;91526;-92
2021/08/15 00:48:30;;;;;;;;;;;26.20;91.20;26.10;99495.00;;;;426897;22;82464;-92
2021/08/15 00:48:41;;;;;;;;;;;26.20;91.20;26.20;99495.00;;;;426856;22;90311;-91
2021/08/15 00:48:53;;;;;;;;;;;26.20;91.10;26.10;99492.00;;;;426911;22;83352;-92
2021/08/15 00:49:05;;;;;;;;;;;26.20;91.20;26.00;99488.00;;;;426775;22;91648;-92
2021/08/15 00:49:17;;;;;;;;;;;26.20;91.20;26.00;99485.00;;;;424794;22;82505;-92
2021/08/15 00:49:29;;;;;;;;;;;26.20;91.20;26.00;99489.00;;;;426410;22;91294;-91
2021/08/15 00:49:41;;;;;;;;;;;26.20;91.20;25.90;99481.00;;;;424957;22;83330;-92
2021/08/15 00:49:52;;;;;;;;;;;26.20;91.40;26.00;99485.00;;;;428448;22;91560;-92
2021/08/15 00:50:04;;;;;;;;;;;26.20;91.30;26.10;99498.00;;;;424870;22;83390;-91
2021/08/15 00:50:16;;;;;;;;;;;26.20;91.30;26.10;99493.00;;;;424160;22;89908;-92
2021/08/15 00:50:28;;;;;;;;;;;26.20;91.40;26.10;99488.00;;;;422848;23;83312;-92
2021/08/15 00:50:40;;;;;;;;;;;26.20;91.30;26.10;99491.00;;;;424407;22;91960;-91
2021/08/15 00:50:52;;;;;;;;;;;26.10;91.30;26.10;99491.00;;;;427256;22;83388;-92
2021/08/15 00:51:04;;;;;;;;;;;26.10;91.30;26.10;99488.00;;;;424568;22;92166;-92
2021/08/15 00:51:15;;;;;;;;;;;26.20;91.40;25.90;99491.00;;;;427235;22;82418;-92
2021/08/15 00:51:27;;;;;;;;;;;26.10;91.50;25.90;99490.00;;;;424298;22;91431;-92
2021/08/15 00:51:39;;;;;;;;;;;26.10;91.50;25.90;99490.00;;;;429150;22;82434;-92
2021/08/15 00:51:51;;;;;;;;;;;26.10;91.50;25.90;99486.00;;;;422383;23;90908;-92
2021/08/15 00:52:03;;;;;;;;;;;26.10;91.50;25.90;99482.00;;;;416859;23;83290;-92
2021/08/15 00:52:15;;;;;;;;;;;26.10;91.50;26.00;99490.00;;;;416157;23;90493;-91
2021/08/15 00:52:27;;;;;;;;;;;26.10;91.50;26.00;99489.00;;;;426583;22;83455;-92
2021/08/15 00:52:38;;;;;;;;;;;26.10;91.50;26.10;99485.00;;;;424751;22;90833;-92
2021/08/15 00:52:50;;;;;;;;;;;26.10;91.50;26.10;99490.00;;;;424696;22;83336;-91
2021/08/15 00:53:02;;;;;;;;;;;26.10;91.40;26.20;99487.00;;;;424255;22;91867;-93
2021/08/15 00:53:14;;;;;;;;;;;26.10;91.40;26.20;99488.00;;;;425127;22;83349;-92
2021/08/15 00:53:26;;;;;;;;;;;26.10;91.40;26.20;99485.00;;;;426289;22;91748;-92
2021/08/15 00:53:38;;;;;;;;;;;26.10;91.40;26.30;99484.00;;;;425138;22;82432;-92
2021/08/15 00:53:50;;;;;;;;;;;26.10;91.40;26.30;99486.00;;;;424615;22;90880;-92
2021/08/15 00:54:02;;;;;;;;;;;26.10;91.50;26.30;99493.00;;;;422622;23;83352;-92
2021/08/15 00:54:14;;;;;;;;;;;26.10;91.60;26.30;99484.00;;;;426466;22;91029;-92
2021/08/15 00:54:26;;;;;;;;;;;26.10;91.60;26.30;99493.00;;;;426670;22;83499;-92
2021/08/15 00:54:38;;;;;;;;;;;26.10;91.60;26.30;99493.00;;;;424208;22;91857;-92
2021/08/15 00:54:50;;;;;;;;;;;26.10;91.50;26.30;99488.00;;;;424790;22;83306;-92
2021/08/15 00:55:02;;;;;;;;;;;26.20;91.50;26.30;99487.00;;;;426471;22;91264;-92
2021/08/15 00:55:13;;;;;;;;;;;26.20;91.60;26.30;99489.00;;;;428826;22;83392;-92
2021/08/15 00:55:25;;;;;;;;;;;26.20;91.50;26.20;99484.00;;;;426238;22;92213;-92
2021/08/15 00:55:37;;;;;;;;;;;26.10;91.50;26.20;99489.00;;;;424791;22;83453;-92
2021/08/15 00:55:49;;;;;;;;;;;26.20;91.60;26.20;99492.00;;;;422478;23;91173;-92
2021/08/15 00:56:02;;;;;;;;;;;26.20;91.60;26.40;99488.00;;;;427236;22;82459;-92
2021/08/15 00:56:13;;;;;;;;;;;26.20;91.70;26.30;99481.00;;;;428434;22;91281;-92
2021/08/15 00:56:26;;;;;;;;;;;26.20;91.70;26.20;99481.00;;;;422867;23;83304;-92
2021/08/15 00:56:38;;;;;;;;;;;26.20;91.70;26.00;99482.00;;;;424581;22;90863;-92
2021/08/15 00:56:50;;;;;;;;;;;26.20;91.70;26.10;99488.00;;;;422797;23;82678;-92
2021/08/15 00:57:02;;;;;;;;;;;26.20;91.80;26.00;99493.00;;;;424503;22;92736;-92
2021/08/15 00:57:14;;;;;;;;;;;26.20;91.80;26.00;99485.00;;;;424701;22;83380;-92
2021/08/15 00:57:34;;;;;;;;;;;26.10;91.80;26.00;99482.00;;;;426698;22;90835;-93
2021/08/15 00:57:46;;;;;;;;;;;26.10;91.90;26.00;99484.00;;;;425054;22;83369;-92
2021/08/15 00:57:58;;;;;;;;;;;26.10;91.80;26.00;99482.00;;;;421932;23;91667;-92
2021/08/15 00:58:10;;;;;;;;;;;26.10;91.80;26.00;99479.00;;;;427107;22;83318;-91
2021/08/15 00:58:22;;;;;;;;;;;26.10;91.80;26.10;99476.00;;;;426534;22;90169;-92
2021/08/15 00:58:34;;;;;;;;;;;26.10;91.70;26.10;99480.00;;;;427228;22;82481;-92
2021/08/15 00:58:46;;;;;;;;;;;26.10;91.70;26.10;99478.00;;;;426223;22;92158;-92
2021/08/15 00:58:59;;;;;;;;;;;26.10;91.80;26.00;99479.00;;;;425140;22;82439;-92
2021/08/15 00:59:11;;;;;;;;;;;26.10;91.90;26.00;99479.00;;;;427980;22;92807;-93
2021/08/15 00:59:23;;;;;;;;;;;26.10;91.90;26.00;99477.00;;;;428896;22;82494;-92
2021/08/15 00:59:38;;;;;;;;;;;26.10;91.90;26.10;99473.00;;;;424374;22;91100;-92
2021/08/15 00:59:50;;;;;;;;;;;26.10;91.80;26.10;99475.00;;;;424734;22;83376;-92